sensor_id;sensor_type;location;lat;lon;timestamp;pressure;altitude;pressure_sealevel;temperature;humidity
38806;BME280;25635;51.146;17.162;2023-08-12T00:01:41;100726.46;;;13.16;72.17
38806;BME280;25635;51.146;17.162;2023-08-12T00:04:07;100725.98;;;13.11;72.34
38806;BME280;25635;51.146;17.162;2023-08-12T00:06:34;100725.85;;;13.07;72.22
38806;BME280;25635;51.146;17.162;2023-08-12T00:09:01;100725.36;;;13.03;72.35
38806;BME280;25635;51.146;17.162;2023-08-12T00:11:30;100726.80;;;13.00;72.55
38806;BME280;25635;51.146;17.162;2023-08-12T00:13:57;100731.02;;;13.00;72.86
38806;BME280;25635;51.146;17.162;2023-08-12T00:16:23;100735.36;;;13.02;73.05
38806;BME280;25635;51.146;17.162;2023-08-12T00:18:51;100735.89;;;13.00;72.68
38806;BME280;25635;51.146;17.162;2023-08-12T00:21:18;100735.42;;;12.94;72.67
38806;BME280;25635;51.146;17.162;2023-08-12T00:23:44;100738.80;;;12.88;72.74
38806;BME280;25635;51.146;17.162;2023-08-12T00:26:11;100737.27;;;12.84;72.78
38806;BME280;25635;51.146;17.162;2023-08-12T00:28:37;100739.23;;;12.80;72.75
38806;BME280;25635;51.146;17.162;2023-08-12T00:31:04;100733.32;;;12.75;72.97
38806;BME280;25635;51.146;17.162;2023-08-12T00:33:31;100731.61;;;12.70;73.24
38806;BME280;25635;51.146;17.162;2023-08-12T00:35:58;100728.84;;;12.65;73.59
38806;BME280;25635;51.146;17.162;2023-08-12T00:38:24;100718.90;;;12.61;73.94
38806;BME280;25635;51.146;17.162;2023-08-12T00:40:51;100714.58;;;12.57;74.04
38806;BME280;25635;51.146;17.162;2023-08-12T00:43:18;100713.89;;;12.56;74.13
38806;BME280;25635;51.146;17.162;2023-08-12T00:45:45;100710.73;;;12.56;74.07
38806;BME280;25635;51.146;17.162;2023-08-12T00:48:11;100711.61;;;12.55;73.87
38806;BME280;25635;51.146;17.162;2023-08-12T00:50:40;100703.93;;;12.53;73.89
38806;BME280;25635;51.146;17.162;2023-08-12T00:53:09;100699.75;;;12.53;73.96
38806;BME280;25635;51.146;17.162;2023-08-12T00:55:36;100697.98;;;12.52;74.18
38806;BME280;25635;51.146;17.162;2023-08-12T00:58:04;100693.27;;;12.53;74.39
38806;BME280;25635;51.146;17.162;2023-08-12T01:00:31;100693.42;;;12.54;74.34
38806;BME280;25635;51.146;17.162;2023-08-12T01:03:00;100686.96;;;12.55;74.37
38806;BME280;25635;51.146;17.162;2023-08-12T01:05:27;100683.46;;;12.55;74.44
38806;BME280;25635;51.146;17.162;2023-08-12T01:07:57;100679.42;;;12.55;74.83
38806;BME280;25635;51.146;17.162;2023-08-12T01:10:34;100682.39;;;12.56;74.95
38806;BME280;25635;51.146;17.162;2023-08-12T01:13:19;100686.24;;;12.57;75.00
38806;BME280;25635;51.146;17.162;2023-08-12T01:15:49;100685.88;;;12.58;75.02
38806;BME280;25635;51.146;17.162;2023-08-12T01:18:18;100687.46;;;12.57;75.01
38806;BME280;25635;51.146;17.162;2023-08-12T01:20:46;100684.66;;;12.57;75.01
38806;BME280;25635;51.146;17.162;2023-08-12T01:23:13;100676.62;;;12.57;75.09
38806;BME280;25635;51.146;17.162;2023-08-12T01:25:42;100676.28;;;12.56;75.50
38806;BME280;25635;51.146;17.162;2023-08-12T01:28:09;100678.39;;;12.55;75.40
38806;BME280;25635;51.146;17.162;2023-08-12T01:30:44;100681.36;;;12.54;75.54
38806;BME280;25635;51.146;17.162;2023-08-12T01:33:29;100678.39;;;12.55;75.45
38806;BME280;25635;51.146;17.162;2023-08-12T01:36:06;100678.89;;;12.56;75.55
38806;BME280;25635;51.146;17.162;2023-08-12T01:38:35;100678.71;;;12.58;75.55
38806;BME280;25635;51.146;17.162;2023-08-12T01:41:04;100676.95;;;12.60;75.63
38806;BME280;25635;51.146;17.162;2023-08-12T01:43:32;100684.45;;;12.60;75.89
38806;BME280;25635;51.146;17.162;2023-08-12T01:45:59;100678.71;;;12.58;76.06
38806;BME280;25635;51.146;17.162;2023-08-12T01:48:25;100679.77;;;12.57;76.14
38806;BME280;25635;51.146;17.162;2023-08-12T01:50:52;100684.31;;;12.56;76.52
38806;BME280;25635;51.146;17.162;2023-08-12T01:53:19;100681.70;;;12.56;76.52
38806;BME280;25635;51.146;17.162;2023-08-12T01:55:45;100679.94;;;12.58;76.39
38806;BME280;25635;51.146;17.162;2023-08-12T01:58:12;100679.20;;;12.61;76.50
38806;BME280;25635;51.146;17.162;2023-08-12T02:00:39;100679.52;;;12.64;76.40
38806;BME280;25635;51.146;17.162;2023-08-12T02:03:05;100677.77;;;12.65;76.28
38806;BME280;25635;51.146;17.162;2023-08-12T02:05:33;100676.20;;;12.66;76.91
38806;BME280;25635;51.146;17.162;2023-08-12T02:08:00;100673.44;;;12.61;77.77
38806;BME280;25635;51.146;17.162;2023-08-12T02:10:26;100668.60;;;12.54;77.89
38806;BME280;25635;51.146;17.162;2023-08-12T02:12:54;100665.30;;;12.52;77.43
38806;BME280;25635;51.146;17.162;2023-08-12T02:15:20;100660.59;;;12.50;77.84
38806;BME280;25635;51.146;17.162;2023-08-12T02:17:47;100653.61;;;12.48;78.40
38806;BME280;25635;51.146;17.162;2023-08-12T02:20:14;100653.63;;;12.46;78.17
38806;BME280;25635;51.146;17.162;2023-08-12T02:22:40;100652.57;;;12.46;77.97
38806;BME280;25635;51.146;17.162;2023-08-12T02:25:07;100644.71;;;12.47;78.19
38806;BME280;25635;51.146;17.162;2023-08-12T02:27:34;100643.48;;;12.45;78.84
38806;BME280;25635;51.146;17.162;2023-08-12T02:30:01;100647.19;;;12.41;79.02
38806;BME280;25635;51.146;17.162;2023-08-12T02:32:27;100650.02;;;12.39;78.78
38806;BME280;25635;51.146;17.162;2023-08-12T02:34:54;100654.54;;;12.41;78.64
38806;BME280;25635;51.146;17.162;2023-08-12T02:37:21;100658.20;;;12.43;78.37
38806;BME280;25635;51.146;17.162;2023-08-12T02:39:48;100657.81;;;12.46;78.22
38806;BME280;25635;51.146;17.162;2023-08-12T02:42:20;100655.35;;;12.49;77.99
38806;BME280;25635;51.146;17.162;2023-08-12T02:44:54;100652.73;;;12.48;77.77
38806;BME280;25635;51.146;17.162;2023-08-12T02:47:22;100653.63;;;12.46;78.03
38806;BME280;25635;51.146;17.162;2023-08-12T02:49:49;100650.34;;;12.42;78.23
38806;BME280;25635;51.146;17.162;2023-08-12T02:52:15;100649.30;;;12.39;78.51
38806;BME280;25635;51.146;17.162;2023-08-12T02:54:42;100651.77;;;12.37;78.97
38806;BME280;25635;51.146;17.162;2023-08-12T02:57:09;100655.28;;;12.35;79.08
38806;BME280;25635;51.146;17.162;2023-08-12T02:59:35;100656.16;;;12.34;79.22
38806;BME280;25635;51.146;17.162;2023-08-12T03:02:02;100653.89;;;12.34;78.86
38806;BME280;25635;51.146;17.162;2023-08-12T03:04:29;100653.33;;;12.37;78.84
38806;BME280;25635;51.146;17.162;2023-08-12T03:06:56;100652.64;;;12.39;78.90
38806;BME280;25635;51.146;17.162;2023-08-12T03:09:22;100650.16;;;12.42;78.69
38806;BME280;25635;51.146;17.162;2023-08-12T03:11:49;100650.70;;;12.42;78.79
38806;BME280;25635;51.146;17.162;2023-08-12T03:14:16;100650.34;;;12.41;79.03
38806;BME280;25635;51.146;17.162;2023-08-12T03:16:42;100652.44;;;12.41;79.07
38806;BME280;25635;51.146;17.162;2023-08-12T03:19:09;100651.39;;;12.43;79.58
38806;BME280;25635;51.146;17.162;2023-08-12T03:21:36;100650.68;;;12.42;79.75
38806;BME280;25635;51.146;17.162;2023-08-12T03:24:02;100651.22;;;12.41;79.67
38806;BME280;25635;51.146;17.162;2023-08-12T03:26:29;100651.03;;;12.42;79.34
38806;BME280;25635;51.146;17.162;2023-08-12T03:28:56;100649.80;;;12.43;79.13
38806;BME280;25635;51.146;17.162;2023-08-12T03:31:22;100652.20;;;12.48;79.32
38806;BME280;25635;51.146;17.162;2023-08-12T03:33:49;100653.58;;;12.50;79.08
38806;BME280;25635;51.146;17.162;2023-08-12T03:36:15;100649.02;;;12.52;79.09
38806;BME280;25635;51.146;17.162;2023-08-12T03:38:42;100644.98;;;12.54;79.19
38806;BME280;25635;51.146;17.162;2023-08-12T03:41:09;100643.77;;;12.54;79.28
38806;BME280;25635;51.146;17.162;2023-08-12T03:43:36;100643.93;;;12.55;79.36
38806;BME280;25635;51.146;17.162;2023-08-12T03:46:04;100644.96;;;12.56;79.30
38806;BME280;25635;51.146;17.162;2023-08-12T03:48:30;100644.08;;;12.58;79.17
38806;BME280;25635;51.146;17.162;2023-08-12T03:50:57;100648.96;;;12.60;79.18
38806;BME280;25635;51.146;17.162;2023-08-12T03:53:24;100649.27;;;12.62;79.15
38806;BME280;25635;51.146;17.162;2023-08-12T03:55:50;100650.48;;;12.64;79.09
38806;BME280;25635;51.146;17.162;2023-08-12T03:58:17;100653.10;;;12.66;79.18
38806;BME280;25635;51.146;17.162;2023-08-12T04:00:44;100651.86;;;12.66;79.12
38806;BME280;25635;51.146;17.162;2023-08-12T04:03:10;100651.86;;;12.68;79.03
38806;BME280;25635;51.146;17.162;2023-08-12T04:05:49;100647.98;;;12.70;78.95
38806;BME280;25635;51.146;17.162;2023-08-12T04:08:17;100644.98;;;12.72;78.85
38806;BME280;25635;51.146;17.162;2023-08-12T04:10:45;100644.27;;;12.75;78.88
38806;BME280;25635;51.146;17.162;2023-08-12T04:13:12;100644.23;;;12.78;78.79
38806;BME280;25635;51.146;17.162;2023-08-12T04:15:39;100645.98;;;12.79;78.99
38806;BME280;25635;51.146;17.162;2023-08-12T04:18:06;100644.40;;;12.80;78.84
38806;BME280;25635;51.146;17.162;2023-08-12T04:20:33;100644.88;;;12.83;78.87
38806;BME280;25635;51.146;17.162;2023-08-12T04:23:00;100646.79;;;12.86;78.89
38806;BME280;25635;51.146;17.162;2023-08-12T04:25:26;100646.91;;;12.89;79.16
38806;BME280;25635;51.146;17.162;2023-08-12T04:27:53;100652.65;;;12.93;79.92
38806;BME280;25635;51.146;17.162;2023-08-12T04:30:20;100651.91;;;12.97;79.41
38806;BME280;25635;51.146;17.162;2023-08-12T04:32:47;100653.43;;;13.03;79.18
38806;BME280;25635;51.146;17.162;2023-08-12T04:35:14;100650.90;;;13.10;79.42
38806;BME280;25635;51.146;17.162;2023-08-12T04:37:40;100647.12;;;13.19;80.13
38806;BME280;25635;51.146;17.162;2023-08-12T04:40:08;100648.27;;;13.26;79.88
38806;BME280;25635;51.146;17.162;2023-08-12T04:42:35;100646.62;;;13.35;80.95
38806;BME280;25635;51.146;17.162;2023-08-12T04:45:01;100638.05;;;13.46;81.84
38806;BME280;25635;51.146;17.162;2023-08-12T04:47:29;100637.74;;;13.57;81.93
38806;BME280;25635;51.146;17.162;2023-08-12T04:49:56;100640.39;;;13.68;81.89
38806;BME280;25635;51.146;17.162;2023-08-12T04:52:23;100639.36;;;13.80;82.23
38806;BME280;25635;51.146;17.162;2023-08-12T04:54:53;100638.80;;;13.93;82.73
38806;BME280;25635;51.146;17.162;2023-08-12T04:57:19;100641.90;;;14.09;82.55
38806;BME280;25635;51.146;17.162;2023-08-12T04:59:46;100644.48;;;14.23;82.42
38806;BME280;25635;51.146;17.162;2023-08-12T05:02:13;100643.41;;;14.36;81.83
38806;BME280;25635;51.146;17.162;2023-08-12T05:04:39;100639.50;;;14.50;82.00
38806;BME280;25635;51.146;17.162;2023-08-12T05:07:06;100639.46;;;14.64;81.43
38806;BME280;25635;51.146;17.162;2023-08-12T05:09:33;100639.77;;;14.76;81.30
38806;BME280;25635;51.146;17.162;2023-08-12T05:12:00;100642.15;;;14.90;81.54
38806;BME280;25635;51.146;17.162;2023-08-12T05:14:27;100640.27;;;15.06;81.74
38806;BME280;25635;51.146;17.162;2023-08-12T05:16:54;100641.97;;;15.18;81.14
38806;BME280;25635;51.146;17.162;2023-08-12T05:19:20;100640.27;;;15.32;81.27
38806;BME280;25635;51.146;17.162;2023-08-12T05:21:47;100634.11;;;15.49;81.54
38806;BME280;25635;51.146;17.162;2023-08-12T05:24:14;100636.39;;;15.66;80.90
38806;BME280;25635;51.146;17.162;2023-08-12T05:26:42;100638.91;;;15.80;80.85
38806;BME280;25635;51.146;17.162;2023-08-12T05:29:09;100636.75;;;15.98;80.90
38806;BME280;25635;51.146;17.162;2023-08-12T05:31:36;100631.20;;;16.17;80.93
38806;BME280;25635;51.146;17.162;2023-08-12T05:34:03;100628.89;;;16.32;80.02
38806;BME280;25635;51.146;17.162;2023-08-12T05:36:30;100627.10;;;16.48;79.99
38806;BME280;25635;51.146;17.162;2023-08-12T05:44:25;100616.55;;;16.88;78.98
38806;BME280;25635;51.146;17.162;2023-08-12T05:46:52;100611.20;;;17.04;78.58
38806;BME280;25635;51.146;17.162;2023-08-12T05:49:24;100609.86;;;17.19;78.00
38806;BME280;25635;51.146;17.162;2023-08-12T05:51:50;100609.14;;;17.38;78.26
38806;BME280;25635;51.146;17.162;2023-08-12T05:54:17;100608.23;;;17.57;77.73
38806;BME280;25635;51.146;17.162;2023-08-12T05:56:44;100607.25;;;17.72;76.93
38806;BME280;25635;51.146;17.162;2023-08-12T05:59:15;100608.41;;;17.86;76.34
38806;BME280;25635;51.146;17.162;2023-08-12T06:01:52;100604.23;;;18.01;76.03
38806;BME280;25635;51.146;17.162;2023-08-12T06:04:21;100601.63;;;18.16;75.61
38806;BME280;25635;51.146;17.162;2023-08-12T06:06:52;100602.77;;;18.35;75.93
38806;BME280;25635;51.146;17.162;2023-08-12T06:09:18;100607.69;;;18.56;75.94
38806;BME280;25635;51.146;17.162;2023-08-12T06:11:46;100605.40;;;18.77;75.57
38806;BME280;25635;51.146;17.162;2023-08-12T06:14:14;100603.90;;;19.00;75.04
38806;BME280;25635;51.146;17.162;2023-08-12T06:16:41;100600.16;;;19.19;74.48
38806;BME280;25635;51.146;17.162;2023-08-12T06:19:11;100597.92;;;19.41;73.74
38806;BME280;25635;51.146;17.162;2023-08-12T06:21:38;100598.38;;;19.62;74.22
38806;BME280;25635;51.146;17.162;2023-08-12T06:24:05;100593.61;;;19.85;73.13
38806;BME280;25635;51.146;17.162;2023-08-12T06:26:32;100593.93;;;20.03;72.91
38806;BME280;25635;51.146;17.162;2023-08-12T06:28:59;100589.02;;;20.23;72.22
38806;BME280;25635;51.146;17.162;2023-08-12T06:31:25;100594.84;;;20.41;71.55
38806;BME280;25635;51.146;17.162;2023-08-12T06:33:52;100598.70;;;20.54;70.72
38806;BME280;25635;51.146;17.162;2023-08-12T06:36:19;100596.23;;;20.71;70.56
38806;BME280;25635;51.146;17.162;2023-08-12T06:38:46;100597.16;;;20.90;70.58
38806;BME280;25635;51.146;17.162;2023-08-12T06:41:13;100589.12;;;21.11;69.47
38806;BME280;25635;51.146;17.162;2023-08-12T06:43:40;100589.63;;;21.35;69.84
38806;BME280;25635;51.146;17.162;2023-08-12T06:46:06;100591.96;;;21.62;69.80
38806;BME280;25635;51.146;17.162;2023-08-12T06:48:34;100592.95;;;21.85;68.58
38806;BME280;25635;51.146;17.162;2023-08-12T06:51:00;100587.51;;;22.09;68.99
38806;BME280;25635;51.146;17.162;2023-08-12T06:53:30;100584.96;;;22.32;67.60
38806;BME280;25635;51.146;17.162;2023-08-12T06:55:57;100583.70;;;22.50;67.16
38806;BME280;25635;51.146;17.162;2023-08-12T06:58:24;100577.97;;;22.68;66.54
38806;BME280;25635;51.146;17.162;2023-08-12T07:00:51;100580.80;;;22.89;66.62
38806;BME280;25635;51.146;17.162;2023-08-12T07:03:19;100582.19;;;23.13;65.95
38806;BME280;25635;51.146;17.162;2023-08-12T07:05:46;100576.28;;;23.34;65.24
38806;BME280;25635;51.146;17.162;2023-08-12T07:08:13;100576.44;;;23.53;64.24
38806;BME280;25635;51.146;17.162;2023-08-12T07:10:41;100575.95;;;23.71;64.43
38806;BME280;25635;51.146;17.162;2023-08-12T07:13:08;100575.92;;;23.97;64.86
38806;BME280;25635;51.146;17.162;2023-08-12T07:15:35;100577.94;;;24.21;63.52
38806;BME280;25635;51.146;17.162;2023-08-12T07:18:02;100582.55;;;24.42;62.64
38806;BME280;25635;51.146;17.162;2023-08-12T07:20:29;100581.02;;;24.62;61.84
38806;BME280;25635;51.146;17.162;2023-08-12T07:22:56;100576.56;;;24.86;62.65
38806;BME280;25635;51.146;17.162;2023-08-12T07:25:22;100578.39;;;25.11;61.71
38806;BME280;25635;51.146;17.162;2023-08-12T07:27:49;100573.06;;;25.33;61.51
38806;BME280;25635;51.146;17.162;2023-08-12T07:30:16;100579.10;;;25.59;60.41
38806;BME280;25635;51.146;17.162;2023-08-12T07:32:43;100574.77;;;25.76;59.49
38806;BME280;25635;51.146;17.162;2023-08-12T07:35:10;100571.64;;;25.89;59.32
38806;BME280;25635;51.146;17.162;2023-08-12T07:37:38;100571.72;;;26.07;58.92
38806;BME280;25635;51.146;17.162;2023-08-12T07:40:05;100575.92;;;26.24;58.70
38806;BME280;25635;51.146;17.162;2023-08-12T07:42:32;100567.86;;;26.42;57.81
38806;BME280;25635;51.146;17.162;2023-08-12T07:44:59;100568.34;;;26.54;55.94
38806;BME280;25635;51.146;17.162;2023-08-12T07:47:26;100560.27;;;26.60;56.09
38806;BME280;25635;51.146;17.162;2023-08-12T07:49:53;100561.45;;;26.71;56.01
38806;BME280;25635;51.146;17.162;2023-08-12T07:52:20;100560.66;;;26.85;55.56
38806;BME280;25635;51.146;17.162;2023-08-12T07:54:47;100559.63;;;26.92;54.80
38806;BME280;25635;51.146;17.162;2023-08-12T07:57:13;100556.42;;;27.04;55.07
38806;BME280;25635;51.146;17.162;2023-08-12T07:59:40;100546.95;;;27.17;54.59
38806;BME280;25635;51.146;17.162;2023-08-12T08:02:07;100549.15;;;27.26;53.96
38806;BME280;25635;51.146;17.162;2023-08-12T08:04:34;100547.49;;;27.35;54.90
38806;BME280;25635;51.146;17.162;2023-08-12T08:07:00;100549.42;;;27.50;53.46
38806;BME280;25635;51.146;17.162;2023-08-12T08:09:28;100550.83;;;27.62;53.43
38806;BME280;25635;51.146;17.162;2023-08-12T08:11:54;100550.35;;;27.64;52.19
38806;BME280;25635;51.146;17.162;2023-08-12T08:14:22;100546.98;;;27.68;52.98
38806;BME280;25635;51.146;17.162;2023-08-12T08:16:49;100547.00;;;27.83;51.95
38806;BME280;25635;51.146;17.162;2023-08-12T08:19:15;100545.42;;;27.92;51.73
38806;BME280;25635;51.146;17.162;2023-08-12T08:21:42;100538.18;;;28.05;52.18
38806;BME280;25635;51.146;17.162;2023-08-12T08:24:09;100543.13;;;28.18;51.34
38806;BME280;25635;51.146;17.162;2023-08-12T08:26:39;100545.25;;;28.30;51.61
38806;BME280;25635;51.146;17.162;2023-08-12T08:29:12;100543.55;;;28.50;51.42
38806;BME280;25635;51.146;17.162;2023-08-12T08:31:39;100544.45;;;28.68;51.81
38806;BME280;25635;51.146;17.162;2023-08-12T08:34:06;100543.48;;;28.87;51.27
38806;BME280;25635;51.146;17.162;2023-08-12T08:36:34;100541.48;;;29.01;50.07
38806;BME280;25635;51.146;17.162;2023-08-12T08:39:00;100537.88;;;29.06;49.62
38806;BME280;25635;51.146;17.162;2023-08-12T08:41:30;100536.58;;;29.09;49.07
38806;BME280;25635;51.146;17.162;2023-08-12T08:44:02;100533.44;;;29.17;48.65
38806;BME280;25635;51.146;17.162;2023-08-12T08:46:34;100530.59;;;29.27;49.50
38806;BME280;25635;51.146;17.162;2023-08-12T08:49:00;100531.26;;;29.37;48.76
38806;BME280;25635;51.146;17.162;2023-08-12T08:51:31;100529.15;;;29.45;48.73
38806;BME280;25635;51.146;17.162;2023-08-12T08:53:58;100529.96;;;29.57;48.05
38806;BME280;25635;51.146;17.162;2023-08-12T08:56:26;100527.25;;;29.62;48.01
38806;BME280;25635;51.146;17.162;2023-08-12T08:58:53;100524.40;;;29.75;47.91
38806;BME280;25635;51.146;17.162;2023-08-12T09:01:21;100527.98;;;29.88;47.81
38806;BME280;25635;51.146;17.162;2023-08-12T09:03:51;100526.91;;;30.05;47.65
38806;BME280;25635;51.146;17.162;2023-08-12T09:06:21;100527.88;;;30.15;46.57
38806;BME280;25635;51.146;17.162;2023-08-12T09:08:51;100528.12;;;30.18;46.34
38806;BME280;25635;51.146;17.162;2023-08-12T09:11:19;100529.28;;;30.28;46.84
38806;BME280;25635;51.146;17.162;2023-08-12T09:13:46;100530.45;;;30.40;46.69
38806;BME280;25635;51.146;17.162;2023-08-12T09:16:15;100527.64;;;30.54;45.98
38806;BME280;25635;51.146;17.162;2023-08-12T09:18:42;100525.33;;;30.58;45.71
38806;BME280;25635;51.146;17.162;2023-08-12T09:21:11;100526.86;;;30.67;45.47
38806;BME280;25635;51.146;17.162;2023-08-12T09:23:41;100526.05;;;30.70;44.82
38806;BME280;25635;51.146;17.162;2023-08-12T09:26:17;100522.89;;;30.73;44.86
38806;BME280;25635;51.146;17.162;2023-08-12T09:28:45;100526.72;;;30.85;44.56
38806;BME280;25635;51.146;17.162;2023-08-12T09:31:29;100527.77;;;30.89;43.86
38806;BME280;25635;51.146;17.162;2023-08-12T09:34:05;100525.40;;;30.92;43.95
38806;BME280;25635;51.146;17.162;2023-08-12T09:36:35;100527.03;;;31.00;43.29
38806;BME280;25635;51.146;17.162;2023-08-12T09:39:06;100517.86;;;31.04;44.32
38806;BME280;25635;51.146;17.162;2023-08-12T09:41:35;100516.04;;;31.18;43.88
38806;BME280;25635;51.146;17.162;2023-08-12T09:44:02;100513.84;;;31.30;43.38
38806;BME280;25635;51.146;17.162;2023-08-12T09:46:32;100515.34;;;31.38;43.35
38806;BME280;25635;51.146;17.162;2023-08-12T09:48:59;100512.94;;;31.45;43.60
38806;BME280;25635;51.146;17.162;2023-08-12T09:51:26;100508.70;;;31.52;42.61
38806;BME280;25635;51.146;17.162;2023-08-12T09:53:54;100509.17;;;31.53;43.32
38806;BME280;25635;51.146;17.162;2023-08-12T09:56:23;100504.55;;;31.60;43.14
38806;BME280;25635;51.146;17.162;2023-08-12T09:58:50;100502.96;;;31.67;43.76
38806;BME280;25635;51.146;17.162;2023-08-12T10:01:19;100498.68;;;31.80;43.15
38806;BME280;25635;51.146;17.162;2023-08-12T10:03:49;100499.98;;;31.92;43.19
38806;BME280;25635;51.146;17.162;2023-08-12T10:06:20;100504.09;;;32.00;43.12
38806;BME280;25635;51.146;17.162;2023-08-12T10:08:47;100501.48;;;32.03;43.22
38806;BME280;25635;51.146;17.162;2023-08-12T10:11:23;100500.08;;;32.14;42.87
38806;BME280;25635;51.146;17.162;2023-08-12T10:13:57;100499.12;;;32.28;43.30
38806;BME280;25635;51.146;17.162;2023-08-12T10:16:26;100494.49;;;32.43;42.45
38806;BME280;25635;51.146;17.162;2023-08-12T10:18:57;100498.77;;;32.45;42.34
38806;BME280;25635;51.146;17.162;2023-08-12T10:21:24;100494.17;;;32.46;41.86
38806;BME280;25635;51.146;17.162;2023-08-12T10:23:51;100490.64;;;32.47;42.07
38806;BME280;25635;51.146;17.162;2023-08-12T10:26:20;100482.06;;;32.54;42.24
38806;BME280;25635;51.146;17.162;2023-08-12T10:28:48;100478.66;;;32.65;41.51
38806;BME280;25635;51.146;17.162;2023-08-12T10:31:18;100477.80;;;32.74;42.09
38806;BME280;25635;51.146;17.162;2023-08-12T10:33:46;100477.55;;;32.86;41.28
38806;BME280;25635;51.146;17.162;2023-08-12T10:36:16;100474.59;;;32.85;41.15
38806;BME280;25635;51.146;17.162;2023-08-12T10:38:45;100467.04;;;32.86;41.46
38806;BME280;25635;51.146;17.162;2023-08-12T10:41:20;100466.60;;;33.00;41.71
38806;BME280;25635;51.146;17.162;2023-08-12T10:43:51;100462.67;;;33.07;41.03
38806;BME280;25635;51.146;17.162;2023-08-12T10:46:37;100454.66;;;33.08;40.52
38806;BME280;25635;51.146;17.162;2023-08-12T10:51:53;100455.64;;;33.08;40.62
38806;BME280;25635;51.146;17.162;2023-08-12T10:59:50;100447.94;;;33.32;40.47
38806;BME280;25635;51.146;17.162;2023-08-12T11:04:52;100443.34;;;33.53;40.08
38806;BME280;25635;51.146;17.162;2023-08-12T11:07:40;100438.96;;;33.57;40.15
38806;BME280;25635;51.146;17.162;2023-08-12T11:10:23;100438.91;;;33.61;39.96
38806;BME280;25635;51.146;17.162;2023-08-12T11:15:28;100438.75;;;33.73;39.82
38806;BME280;25635;51.146;17.162;2023-08-12T11:17:56;100441.44;;;33.82;39.37
38806;BME280;25635;51.146;17.162;2023-08-12T11:20:23;100437.61;;;33.91;40.19
38806;BME280;25635;51.146;17.162;2023-08-12T11:22:50;100433.17;;;34.01;38.81
38806;BME280;25635;51.146;17.162;2023-08-12T11:25:19;100433.57;;;34.01;39.03
38806;BME280;25635;51.146;17.162;2023-08-12T11:27:47;100429.05;;;33.97;38.99
38806;BME280;25635;51.146;17.162;2023-08-12T11:30:16;100429.96;;;34.00;38.65
38806;BME280;25635;51.146;17.162;2023-08-12T11:32:47;100427.48;;;33.97;38.79
38806;BME280;25635;51.146;17.162;2023-08-12T11:35:19;100426.66;;;34.01;38.81
38806;BME280;25635;51.146;17.162;2023-08-12T11:38:01;100418.62;;;34.05;39.20
38806;BME280;25635;51.146;17.162;2023-08-12T11:40:43;100416.84;;;34.21;39.12
38806;BME280;25635;51.146;17.162;2023-08-12T11:43:11;100418.80;;;34.35;39.01
38806;BME280;25635;51.146;17.162;2023-08-12T11:45:49;100413.24;;;34.38;38.55
38806;BME280;25635;51.146;17.162;2023-08-12T11:48:16;100412.41;;;34.34;37.81
38806;BME280;25635;51.146;17.162;2023-08-12T11:50:45;100408.48;;;34.33;37.94
38806;BME280;25635;51.146;17.162;2023-08-12T11:53:12;100410.08;;;34.34;38.38
38806;BME280;25635;51.146;17.162;2023-08-12T11:55:39;100406.27;;;34.42;37.80
38806;BME280;25635;51.146;17.162;2023-08-12T11:58:06;100401.05;;;34.52;38.49
38806;BME280;25635;51.146;17.162;2023-08-12T12:00:41;100394.06;;;34.59;38.32
38806;BME280;25635;51.146;17.162;2023-08-12T12:03:10;100392.73;;;34.65;37.74
38806;BME280;25635;51.146;17.162;2023-08-12T12:05:49;100383.10;;;34.65;37.75
38806;BME280;25635;51.146;17.162;2023-08-12T12:08:36;100383.82;;;34.80;38.35
38806;BME280;25635;51.146;17.162;2023-08-12T12:11:06;100383.55;;;34.84;37.71
38806;BME280;25635;51.146;17.162;2023-08-12T12:13:34;100382.82;;;34.89;37.49
38806;BME280;25635;51.146;17.162;2023-08-12T12:16:01;100380.05;;;34.98;37.96
38806;BME280;25635;51.146;17.162;2023-08-12T12:18:28;100377.89;;;35.05;37.75
38806;BME280;25635;51.146;17.162;2023-08-12T12:20:58;100374.83;;;35.13;37.33
38806;BME280;25635;51.146;17.162;2023-08-12T12:23:30;100378.20;;;35.07;36.72
38806;BME280;25635;51.146;17.162;2023-08-12T12:26:03;100375.44;;;34.99;36.84
38806;BME280;25635;51.146;17.162;2023-08-12T12:28:30;100370.19;;;35.06;37.48
38806;BME280;25635;51.146;17.162;2023-08-12T12:30:57;100367.79;;;35.09;37.17
38806;BME280;25635;51.146;17.162;2023-08-12T12:33:24;100367.27;;;35.19;37.99
38806;BME280;25635;51.146;17.162;2023-08-12T12:35:51;100369.45;;;35.29;37.02
38806;BME280;25635;51.146;17.162;2023-08-12T12:38:17;100366.34;;;35.29;36.92
38806;BME280;25635;51.146;17.162;2023-08-12T12:40:53;100364.57;;;35.27;36.78
38806;BME280;25635;51.146;17.162;2023-08-12T12:43:19;100364.81;;;35.30;36.51
38806;BME280;25635;51.146;17.162;2023-08-12T12:45:47;100360.52;;;35.34;36.81
38806;BME280;25635;51.146;17.162;2023-08-12T12:48:16;100360.99;;;35.37;36.57
38806;BME280;25635;51.146;17.162;2023-08-12T12:50:42;100360.83;;;35.38;36.10
38806;BME280;25635;51.146;17.162;2023-08-12T12:53:09;100357.55;;;35.35;36.28
38806;BME280;25635;51.146;17.162;2023-08-12T12:55:36;100355.70;;;35.39;36.29
38806;BME280;25635;51.146;17.162;2023-08-12T12:58:08;100347.41;;;35.45;36.04
38806;BME280;25635;51.146;17.162;2023-08-12T13:00:36;100345.50;;;35.49;36.34
38806;BME280;25635;51.146;17.162;2023-08-12T13:03:02;100347.05;;;35.50;36.01
38806;BME280;25635;51.146;17.162;2023-08-12T13:05:29;100342.92;;;35.40;35.92